createdAt,value
2022-11-13T00:01:48.626Z,86.40
2022-11-13T00:04:34.978Z,86.73
2022-11-13T00:07:22.466Z,86.96
2022-11-13T00:10:09.486Z,86.79
2022-11-13T00:12:56.164Z,86.64
2022-11-13T00:15:42.444Z,86.53
2022-11-13T00:18:30.338Z,86.36
2022-11-13T00:21:23.601Z,86.62
2022-11-13T00:24:09.889Z,87.16
2022-11-13T00:26:56.011Z,87.24
2022-11-13T00:29:42.209Z,86.90
2022-11-13T00:32:28.494Z,86.98
2022-11-13T00:35:15.303Z,86.75
2022-11-13T00:38:01.262Z,86.91
2022-11-13T00:40:47.458Z,87.13
2022-11-13T00:43:33.840Z,87.04
2022-11-13T00:46:20.376Z,87.01
2022-11-13T00:49:06.936Z,86.87
2022-11-13T00:51:53.082Z,87.03
2022-11-13T00:54:39.562Z,87.29
2022-11-13T00:57:25.903Z,87.22
2022-11-13T01:00:12.716Z,87.17
2022-11-13T01:02:59.745Z,86.90
2022-11-13T01:05:47.094Z,86.92
2022-11-13T01:08:33.601Z,86.80
2022-11-13T01:11:22.450Z,86.98
2022-11-13T01:14:09.370Z,87.43
2022-11-13T01:16:55.949Z,87.11
2022-11-13T01:19:41.950Z,86.86
2022-11-13T01:22:28.402Z,86.85
2022-11-13T01:25:14.875Z,86.52
2022-11-13T01:28:01.190Z,86.68
2022-11-13T01:30:47.498Z,86.92
2022-11-13T01:33:33.791Z,87.01
2022-11-13T01:36:28.303Z,86.83
2022-11-13T01:39:14.724Z,86.92
2022-11-13T01:42:01.147Z,86.83
2022-11-13T01:44:53.266Z,86.99
2022-11-13T01:47:41.314Z,87.46
2022-11-13T01:50:27.474Z,87.66
2022-11-13T01:53:13.986Z,87.38
2022-11-13T01:56:00.130Z,87.51
2022-11-13T01:58:53.087Z,87.53
2022-11-13T02:01:39.489Z,87.69
2022-11-13T02:04:28.157Z,87.54
2022-11-13T02:07:18.857Z,87.37
2022-11-13T02:10:06.327Z,87.49
2022-11-13T02:12:52.632Z,87.09
2022-11-13T02:15:40.473Z,86.99
2022-11-13T02:18:29.813Z,86.80
2022-11-13T02:21:23.325Z,86.57
2022-11-13T02:24:15.662Z,86.60
2022-11-13T02:27:06.729Z,86.75
2022-11-13T02:29:53.092Z,86.70
2022-11-13T02:32:44.354Z,86.65
2022-11-13T02:35:33.576Z,86.53
2022-11-13T02:38:20.249Z,86.56
2022-11-13T02:41:07.030Z,86.37
2022-11-13T02:43:53.321Z,86.60
2022-11-13T02:46:39.798Z,86.77
2022-11-13T02:49:26.249Z,87.11
2022-11-13T02:52:12.756Z,86.93
2022-11-13T02:54:59.001Z,86.64
2022-11-13T02:57:45.764Z,86.66
2022-11-13T03:00:32.221Z,86.70
2022-11-13T03:03:34.292Z,86.86
2022-11-13T03:06:25.260Z,87.29
2022-11-13T03:09:11.518Z,87.29
2022-11-13T03:11:57.838Z,87.17
2022-11-13T03:14:43.915Z,87.01
2022-11-13T03:17:33.673Z,86.84
2022-11-13T03:20:20.110Z,86.97
2022-11-13T03:23:06.707Z,86.81
2022-11-13T03:25:53.021Z,87.04
2022-11-13T03:28:39.222Z,87.46
2022-11-13T03:31:25.382Z,87.38
2022-11-13T03:34:11.674Z,87.09
2022-11-13T03:36:57.816Z,87.12
2022-11-13T03:39:44.298Z,87.24
2022-11-13T03:42:31.562Z,87.01
2022-11-13T03:45:17.829Z,87.13
2022-11-13T03:48:04.546Z,87.21
2022-11-13T03:50:54.124Z,87.17
2022-11-13T03:53:40.742Z,87.01
2022-11-13T03:56:26.956Z,86.66
2022-11-13T03:59:13.481Z,86.35
2022-11-13T04:01:59.974Z,86.53
2022-11-13T04:04:46.200Z,86.52
2022-11-13T04:07:32.577Z,86.84
2022-11-13T04:10:19.266Z,86.90
2022-11-13T04:13:05.402Z,87.10
2022-11-13T04:15:51.715Z,86.85
2022-11-13T04:18:38.095Z,87.02
2022-11-13T04:21:24.493Z,86.74
2022-11-13T04:24:11.048Z,86.49
2022-11-13T04:26:57.388Z,86.42
2022-11-13T04:29:43.690Z,86.55
2022-11-13T04:32:30.364Z,86.75
2022-11-13T04:35:16.694Z,86.68
2022-11-13T04:38:02.928Z,86.41
2022-11-13T04:41:11.006Z,86.31
2022-11-13T04:43:57.649Z,86.26
2022-11-13T04:46:44.020Z,86.74
2022-11-13T04:49:30.169Z,87.06
2022-11-13T04:52:16.510Z,87.08
2022-11-13T04:55:02.769Z,87.02
2022-11-13T04:57:51.476Z,87.12
2022-11-13T05:00:38.248Z,86.71
2022-11-13T05:03:24.512Z,86.60
2022-11-13T05:06:11.479Z,86.61
2022-11-13T05:08:57.779Z,86.74
2022-11-13T05:11:44.086Z,86.66
2022-11-13T05:14:30.370Z,86.50
2022-11-13T05:17:17.019Z,86.78
2022-11-13T05:20:04.492Z,86.39
2022-11-13T05:22:50.689Z,86.25
2022-11-13T05:25:36.800Z,86.29
2022-11-13T05:28:23.208Z,86.32
2022-11-13T05:31:14.925Z,86.46
2022-11-13T05:34:06.098Z,86.61
2022-11-13T05:36:52.705Z,86.84
2022-11-13T05:39:39.008Z,86.65
2022-11-13T05:42:25.095Z,86.57
2022-11-13T05:45:11.628Z,86.90
2022-11-13T05:48:00.487Z,87.05
2022-11-13T05:50:46.728Z,87.11
2022-11-13T05:53:34.369Z,86.81
2022-11-13T05:56:23.272Z,86.58
2022-11-13T05:59:09.479Z,86.50
2022-11-13T06:01:55.921Z,86.55
2022-11-13T06:04:42.492Z,87.00
2022-11-13T06:07:28.590Z,87.08
2022-11-13T06:10:16.334Z,86.90
2022-11-13T06:13:02.545Z,86.49
2022-11-13T06:15:48.594Z,86.49
2022-11-13T06:18:35.314Z,86.43
2022-11-13T06:21:23.873Z,86.44
2022-11-13T06:24:12.741Z,86.59
2022-11-13T06:26:59.125Z,86.70
2022-11-13T06:29:47.036Z,86.35
2022-11-13T06:32:33.481Z,86.36
2022-11-13T06:35:19.983Z,86.34
2022-11-13T06:38:06.543Z,86.59
2022-11-13T06:40:52.885Z,86.32
2022-11-13T06:43:39.470Z,86.72
2022-11-13T06:46:27.976Z,86.56
2022-11-13T06:49:14.559Z,86.72
2022-11-13T06:52:00.765Z,86.56
2022-11-13T06:54:47.029Z,86.56
2022-11-13T06:57:34.088Z,86.50
2022-11-13T07:00:20.643Z,86.27
2022-11-13T07:03:14.907Z,86.58
2022-11-13T07:06:03.433Z,86.36
2022-11-13T07:08:51.022Z,86.41
2022-11-13T07:11:37.335Z,86.08
2022-11-13T07:14:25.082Z,86.01
2022-11-13T07:17:11.337Z,85.96
2022-11-13T07:19:57.573Z,86.03
2022-11-13T07:22:44.050Z,86.05
2022-11-13T07:25:31.066Z,86.15
2022-11-13T07:28:17.599Z,86.37
2022-11-13T07:31:04.419Z,86.19
2022-11-13T07:33:51.950Z,86.10
2022-11-13T07:36:38.358Z,85.97
2022-11-13T07:39:24.419Z,86.11
2022-11-13T07:42:10.803Z,86.43
2022-11-13T07:44:57.124Z,86.24
2022-11-13T07:47:43.647Z,86.34
2022-11-13T07:50:32.548Z,86.23
2022-11-13T07:53:20.418Z,86.01
2022-11-13T07:56:07.880Z,85.92
2022-11-13T07:58:54.574Z,85.85
2022-11-13T08:01:40.937Z,85.81
2022-11-13T08:04:28.452Z,85.99
2022-11-13T08:07:14.747Z,86.22
2022-11-13T08:10:01.560Z,86.44
2022-11-13T08:12:48.053Z,86.63
2022-11-13T08:15:35.174Z,86.15
2022-11-13T08:18:21.408Z,86.12
2022-11-13T08:21:13.482Z,85.82
2022-11-13T08:24:01.345Z,85.97
2022-11-13T08:26:47.517Z,85.94
2022-11-13T08:29:37.325Z,86.30
2022-11-13T08:32:23.688Z,86.33
2022-11-13T08:35:10.209Z,86.28
2022-11-13T08:38:08.120Z,85.91
2022-11-13T08:41:05.924Z,85.49
2022-11-13T08:43:55.378Z,85.13
2022-11-13T08:46:41.744Z,85.04
2022-11-13T08:49:27.981Z,85.09
2022-11-13T08:52:15.399Z,85.17
2022-11-13T08:55:01.743Z,85.43
2022-11-13T08:57:48.199Z,85.67
2022-11-13T09:00:34.703Z,85.65
2022-11-13T09:03:21.265Z,85.45
2022-11-13T09:06:08.827Z,85.33
2022-11-13T09:08:55.474Z,85.07
2022-11-13T09:11:41.962Z,85.10
2022-11-13T09:14:28.304Z,85.20
2022-11-13T09:17:15.141Z,85.35
2022-11-13T09:20:04.276Z,85.36
2022-11-13T09:23:03.208Z,85.10
2022-11-13T09:25:50.140Z,85.04
2022-11-13T09:28:36.302Z,84.91
2022-11-13T09:31:22.620Z,84.77
2022-11-13T09:34:09.946Z,84.24
2022-11-13T09:36:56.190Z,83.95
2022-11-13T09:39:42.474Z,83.92
2022-11-13T09:42:31.661Z,84.27
2022-11-13T09:45:17.852Z,84.18
2022-11-13T09:48:21.366Z,84.32
2022-11-13T09:51:15.601Z,84.92
2022-11-13T09:54:09.726Z,84.94
2022-11-13T09:57:25.870Z,84.52
2022-11-13T10:00:16.197Z,84.27
2022-11-13T10:03:11.587Z,84.06
2022-11-13T10:06:15.755Z,83.74
2022-11-13T10:09:14.280Z,84.03
2022-11-13T10:12:07.469Z,83.85
2022-11-13T10:14:57.204Z,83.86
2022-11-13T10:18:02.714Z,84.12
2022-11-13T10:20:54.346Z,83.99
2022-11-13T10:23:41.526Z,83.86
2022-11-13T10:26:29.459Z,83.89
2022-11-13T10:29:19.319Z,83.72
2022-11-13T10:32:26.815Z,83.77
2022-11-13T10:35:12.885Z,83.63
2022-11-13T10:38:16.061Z,83.79
2022-11-13T10:41:11.114Z,83.85
2022-11-13T10:43:59.440Z,84.02
2022-11-13T10:46:45.663Z,84.16
2022-11-13T10:49:32.124Z,83.71
2022-11-13T10:52:22.439Z,83.55
2022-11-13T10:55:34.422Z,83.27
2022-11-13T10:58:20.674Z,83.37
2022-11-13T11:01:25.157Z,83.48
2022-11-13T11:04:29.433Z,83.47
2022-11-13T11:07:20.924Z,83.87
2022-11-13T11:10:35.877Z,83.84
2022-11-13T11:13:23.617Z,83.48
2022-11-13T11:16:14.514Z,83.45
2022-11-13T11:19:06.758Z,83.47
2022-11-13T11:22:01.941Z,83.36
2022-11-13T11:25:05.022Z,83.30
2022-11-13T11:28:00.899Z,83.36
2022-11-13T11:30:54.512Z,83.80
2022-11-13T11:34:11.400Z,83.54
2022-11-13T11:37:12.739Z,83.30
2022-11-13T11:40:25.638Z,82.58
2022-11-13T11:43:35.275Z,83.03
2022-11-13T11:46:24.503Z,82.92
2022-11-13T11:49:11.497Z,82.86
2022-11-13T11:52:03.971Z,83.22
2022-11-13T11:55:04.926Z,83.01
2022-11-13T11:57:51.402Z,83.07
2022-11-13T12:00:44.431Z,82.71
2022-11-13T12:03:45.927Z,82.95
2022-11-13T12:06:56.845Z,82.56
2022-11-13T12:09:55.606Z,82.67
2022-11-13T12:12:47.990Z,82.99
2022-11-13T12:15:49.489Z,83.40
2022-11-13T12:19:00.013Z,83.29
2022-11-13T12:22:07.146Z,82.85
2022-11-13T12:25:10.561Z,82.57
2022-11-13T12:28:18.878Z,82.41
2022-11-13T12:31:23.506Z,82.19
2022-11-13T12:34:24.229Z,82.45
2022-11-13T12:37:14.379Z,82.97
2022-11-13T12:40:06.903Z,83.38
2022-11-13T12:43:37.477Z,83.16
2022-11-13T12:46:34.646Z,83.12
2022-11-13T12:49:23.617Z,83.29
2022-11-13T12:52:16.102Z,83.72
2022-11-13T12:55:09.206Z,83.75
2022-11-13T12:58:06.355Z,84.52
2022-11-13T13:00:55.228Z,84.53
2022-11-13T13:03:41.804Z,84.21
2022-11-13T13:07:00.163Z,84.09
2022-11-13T13:10:07.177Z,84.28
2022-11-13T13:12:53.625Z,84.35
2022-11-13T13:15:46.591Z,84.26
2022-11-13T13:18:36.106Z,84.63
2022-11-13T13:21:22.632Z,84.65
2022-11-13T13:24:34.013Z,84.59
2022-11-13T13:27:23.467Z,84.73
2022-11-13T13:30:21.879Z,84.53
2022-11-13T13:33:21.574Z,84.52
2022-11-13T13:36:44.059Z,84.27
2022-11-13T13:39:49.156Z,84.65
2022-11-13T13:43:00.030Z,84.67
2022-11-13T13:46:12.287Z,84.88
2022-11-13T13:49:05.406Z,85.18
2022-11-13T13:51:54.828Z,84.96
2022-11-13T13:54:44.207Z,84.71
2022-11-13T13:57:30.562Z,84.86
2022-11-13T14:00:19.174Z,84.83
2022-11-13T14:03:25.121Z,85.37
2022-11-13T14:06:22.939Z,85.28
2022-11-13T14:09:15.813Z,85.62
2022-11-13T14:12:20.081Z,85.50
2022-11-13T14:15:17.164Z,85.34
2022-11-13T14:18:14.239Z,85.45
2022-11-13T14:21:12.898Z,85.49
2022-11-13T14:24:02.432Z,85.63
2022-11-13T14:26:51.178Z,85.76
2022-11-13T14:33:09.970Z,85.54
2022-11-13T14:35:58.033Z,85.68
2022-11-13T14:38:52.048Z,85.72
2022-11-13T14:41:45.814Z,85.72
2022-11-13T14:44:34.491Z,85.83
2022-11-13T14:47:23.679Z,86.07
2022-11-13T14:50:22.559Z,86.15
2022-11-13T14:53:10.774Z,86.01
2022-11-13T14:56:03.265Z,86.00
2022-11-13T14:58:49.841Z,86.20
2022-11-13T15:01:37.178Z,86.18
2022-11-13T15:04:25.135Z,86.60
2022-11-13T15:07:30.711Z,86.73
2022-11-13T15:10:19.631Z,86.99
2022-11-13T15:13:12.113Z,86.77
2022-11-13T15:15:58.756Z,86.77
2022-11-13T15:18:49.494Z,86.62
2022-11-13T15:21:36.127Z,86.84
2022-11-13T15:24:22.635Z,87.25
2022-11-13T15:27:18.677Z,87.31
2022-11-13T15:30:05.493Z,87.62
2022-11-13T15:32:54.128Z,87.62
2022-11-13T15:35:42.846Z,87.77
2022-11-13T15:38:29.384Z,87.76
2022-11-13T15:41:21.046Z,87.56
2022-11-13T15:44:13.233Z,87.70
2022-11-13T15:46:59.780Z,87.56
2022-11-13T15:49:56.564Z,87.35
2022-11-13T15:52:54.172Z,87.52
2022-11-13T15:55:40.808Z,87.63
2022-11-13T15:58:33.370Z,87.44
2022-11-13T16:01:21.628Z,87.69
2022-11-13T16:04:09.032Z,87.40
2022-11-13T16:06:55.314Z,87.26
2022-11-13T16:09:42.263Z,87.18
2022-11-13T16:12:28.746Z,87.45
2022-11-13T16:15:16.740Z,87.93
2022-11-13T16:18:03.110Z,88.01
2022-11-13T16:20:49.660Z,88.11
2022-11-13T16:23:35.833Z,88.04
2022-11-13T16:26:24.966Z,88.15
2022-11-13T16:29:22.339Z,88.24
2022-11-13T16:32:16.597Z,88.10
2022-11-13T16:35:02.980Z,87.75
2022-11-13T16:37:49.486Z,87.92
2022-11-13T16:40:36.006Z,88.27
2022-11-13T16:43:22.437Z,88.51
2022-11-13T16:46:20.870Z,88.24
2022-11-13T16:49:12.836Z,87.91
2022-11-13T16:51:59.492Z,87.82
2022-11-13T16:54:45.829Z,88.58
2022-11-13T16:57:32.293Z,88.90
2022-11-13T17:00:20.730Z,88.56
2022-11-13T17:03:07.344Z,88.33
2022-11-13T17:05:54.070Z,88.29
2022-11-13T17:08:40.693Z,88.24
2022-11-13T17:11:29.525Z,88.40
2022-11-13T17:14:15.629Z,88.48
2022-11-13T17:17:03.973Z,88.54
2022-11-13T17:19:50.374Z,88.58
2022-11-13T17:22:36.657Z,88.04
2022-11-13T17:25:26.315Z,88.05
2022-11-13T17:28:12.789Z,87.89
2022-11-13T17:31:03.798Z,88.23
2022-11-13T17:33:53.581Z,88.47
2022-11-13T17:36:40.594Z,88.41
2022-11-13T17:39:27.675Z,88.25
2022-11-13T17:42:14.197Z,88.13
2022-11-13T17:45:00.467Z,88.07
2022-11-13T17:47:50.001Z,87.90
2022-11-13T17:50:36.521Z,88.15
2022-11-13T17:53:23.858Z,88.57
2022-11-13T17:56:12.118Z,88.58
2022-11-13T17:58:58.344Z,88.57
2022-11-13T18:01:44.834Z,88.51
2022-11-13T18:04:31.998Z,88.38
2022-11-13T18:07:18.754Z,88.48
2022-11-13T18:10:06.365Z,88.52
2022-11-13T18:12:52.513Z,88.99
2022-11-13T18:15:40.120Z,89.16
2022-11-13T18:18:26.366Z,88.92
2022-11-13T18:21:22.711Z,88.71
2022-11-13T18:24:15.329Z,88.42
2022-11-13T18:27:02.451Z,88.50
2022-11-13T18:29:48.940Z,88.65
2022-11-13T18:32:36.000Z,88.65
2022-11-13T18:35:22.319Z,88.97
2022-11-13T18:38:08.506Z,88.65
2022-11-13T18:41:06.541Z,88.96
2022-11-13T18:43:53.033Z,88.60
2022-11-13T18:46:39.679Z,88.56
2022-11-13T18:49:26.030Z,88.64
2022-11-13T18:52:12.779Z,88.60
2022-11-13T18:54:59.140Z,88.93
2022-11-13T18:57:45.544Z,89.08
2022-11-13T19:00:31.952Z,88.94
2022-11-13T19:03:18.112Z,88.93
2022-11-13T19:06:10.510Z,88.85
2022-11-13T19:09:00.026Z,89.01
2022-11-13T19:11:47.241Z,88.82
2022-11-13T19:14:33.384Z,89.09
2022-11-13T19:17:20.517Z,89.14
2022-11-13T19:20:08.538Z,88.91
2022-11-13T19:22:54.896Z,88.96
2022-11-13T19:25:41.034Z,88.96
2022-11-13T19:28:28.620Z,88.65
2022-11-13T19:31:17.887Z,88.47
2022-11-13T19:34:07.388Z,88.51
2022-11-13T19:36:54.430Z,88.39
2022-11-13T19:39:43.184Z,88.82
2022-11-13T19:42:29.438Z,88.87
2022-11-13T19:45:15.654Z,88.69
2022-11-13T19:48:02.223Z,88.44
2022-11-13T19:50:48.875Z,88.50
2022-11-13T19:53:36.813Z,88.31
2022-11-13T19:56:24.606Z,88.38
2022-11-13T19:59:11.552Z,88.89
2022-11-13T20:01:57.796Z,88.32
2022-11-13T20:04:45.846Z,88.11
2022-11-13T20:07:32.022Z,88.12
2022-11-13T20:10:18.491Z,87.72
2022-11-13T20:13:06.943Z,87.97
2022-11-13T20:15:54.682Z,87.60
2022-11-13T20:18:43.527Z,87.56
2022-11-13T20:21:31.457Z,87.81
2022-11-13T20:24:18.153Z,87.75
2022-11-13T20:27:04.707Z,87.89
2022-11-13T20:29:50.992Z,88.09
2022-11-13T20:32:38.825Z,87.89
2022-11-13T20:35:25.243Z,87.98
2022-11-13T20:38:11.735Z,87.81
2022-11-13T20:41:04.744Z,88.06
2022-11-13T20:43:52.182Z,88.11
2022-11-13T20:46:38.876Z,87.74
2022-11-13T20:49:25.336Z,87.65
2022-11-13T20:52:12.256Z,87.64
2022-11-13T20:54:58.645Z,87.88
2022-11-13T20:57:46.229Z,88.20
2022-11-13T21:00:32.382Z,88.01
2022-11-13T21:03:18.506Z,88.25
2022-11-13T21:06:05.955Z,88.08
2022-11-13T21:08:56.380Z,88.03
2022-11-13T21:11:43.207Z,87.96
2022-11-13T21:14:29.571Z,87.65
2022-11-13T21:17:15.645Z,87.57
2022-11-13T21:20:04.025Z,87.47
2022-11-13T21:22:50.359Z,87.53
2022-11-13T21:25:36.511Z,87.74
2022-11-13T21:28:25.338Z,87.78
2022-11-13T21:31:15.828Z,88.05
2022-11-13T21:34:02.502Z,88.29
2022-11-13T21:36:49.270Z,88.69
2022-11-13T21:39:35.583Z,88.30
2022-11-13T21:42:22.281Z,88.37
2022-11-13T21:45:09.958Z,88.66
2022-11-13T21:47:56.141Z,89.38
2022-11-13T21:50:42.397Z,88.75
2022-11-13T21:53:28.830Z,88.59
2022-11-13T21:56:15.788Z,88.93
2022-11-13T21:59:02.802Z,88.62
2022-11-13T22:01:49.207Z,89.02
2022-11-13T22:04:35.575Z,88.83
2022-11-13T22:07:21.998Z,89.30
2022-11-13T22:10:08.836Z,89.07
2022-11-13T22:12:55.490Z,88.62
2022-11-13T22:15:42.626Z,89.00
2022-11-13T22:18:29.464Z,89.06
2022-11-13T22:21:15.817Z,89.14
2022-11-13T22:24:02.607Z,89.22
2022-11-13T22:26:48.981Z,89.40
2022-11-13T22:29:35.238Z,89.26
2022-11-13T22:32:21.506Z,88.96
2022-11-13T22:35:08.128Z,89.19
2022-11-13T22:37:54.448Z,89.30
2022-11-13T22:40:41.052Z,89.19
2022-11-13T22:43:27.496Z,89.34
2022-11-13T22:46:16.730Z,89.54
2022-11-13T22:49:05.022Z,89.47
2022-11-13T22:51:51.339Z,89.93
2022-11-13T22:54:37.326Z,89.99
2022-11-13T22:57:23.835Z,89.61
2022-11-13T23:00:11.149Z,89.40
2022-11-13T23:03:00.681Z,89.73
2022-11-13T23:05:47.131Z,90.09
2022-11-13T23:08:38.594Z,89.96
2022-11-13T23:11:34.507Z,89.96
2022-11-13T23:14:21.011Z,89.86
2022-11-13T23:17:07.664Z,89.49
2022-11-13T23:19:53.975Z,89.87
2022-11-13T23:22:40.383Z,90.07
2022-11-13T23:25:27.226Z,89.89
2022-11-13T23:28:13.617Z,89.83
2022-11-13T23:34:09.712Z,90.09
2022-11-13T23:36:55.943Z,90.04
2022-11-13T23:39:42.542Z,90.53
2022-11-13T23:42:53.489Z,90.39
2022-11-13T23:45:35.142Z,90.47
2022-11-13T23:48:22.015Z,90.41
2022-11-13T23:51:08.381Z,89.96
2022-11-13T23:53:54.863Z,90.46
2022-11-13T23:56:40.889Z,90.26
2022-11-13T23:59:27.355Z,90.25
